MMAN

Details ICAO MMAN (NTR)
Name DEL NORTE INTL
Region Mexico
Timezone America/Monterrey (UTC-6.0)
Plans Departing 41
Arriving 17
Stats Elevation 1,476 ft / 450 m (AMSL)
Location 25.865834° -100.239953°
Runways 2
Magnetic Variation 5.098° E
Sunrise 2017-12-15 13:21:42 UTC / 2017-12-15 07:21:42 Local
Sunset 2017-12-15 23:53:34 UTC / 2017-12-15 17:53:34 Local
Advertisement - Login to hide

Runways

ID Width Length Bearing (true) Bearing (mag) Surface Threshold Offset Overrun Length
02 148 ft / 45 m 6,642 ft / 2,025 m 32.16° 27.06° Asphalt 236 ft / 72 m 0 ft / 0 m
11 148 ft / 45 m 5,034 ft / 1,534 m 122.32° 117.22° Asphalt 262 ft / 80 m 0 ft / 0 m
20 148 ft / 45 m 6,642 ft / 2,025 m 212.16° 207.06° Asphalt 0 ft / 0 m 192 ft / 59 m
29 148 ft / 45 m 5,034 ft / 1,534 m 302.33° 297.23° Asphalt 334 ft / 102 m 0 ft / 0 m

Map

Weather


0- 5 10 15 20 25 30 35+ Temperature / ° C

Clouds and Precipitation
Forecast for 2017-12-16 00:00 UTC. Updated 33 minutes ago

Ground ~20,000 ft ~40,000 ft Winds

METAR

Not found

TAF

TAF MMAN 151736Z 1518/1618 34005KT 6SM -RA HZ BKN020 OVC040 TEMPO 1519/1523 4SM RA FM160100 03005KT 6SM -RA BKN015 OVC070 FM161200 00000KT 5SM -RA BKN015 BKN020CB OVC070 PROB40 1614/1618 3SM TSRA

Frequencies

Recorded 127.55 MHz ATIS
Approach 119.75 MHz MONTERREY APP
Tower 118.60 MHz TWR
Approach 121.40 MHz MONTERREY APP
Warning: Do not use this data for real-world aviation or navigation. No guarantee of current accuracy is given.